createdAt,value
2023-03-03T00:00:57.270Z,9.35
2023-03-03T00:06:02.170Z,8.02
2023-03-03T00:11:07.929Z,7.55
2023-03-03T00:16:22.571Z,7.72
2023-03-03T00:21:33.550Z,7.00
2023-03-03T00:26:41.023Z,7.40
2023-03-03T00:31:46.762Z,9.43
2023-03-03T00:36:54.700Z,8.20
2023-03-03T00:42:00.771Z,7.68
2023-03-03T00:47:24.692Z,6.07
2023-03-03T00:52:30.276Z,6.22
2023-03-03T00:57:34.930Z,7.20
2023-03-03T01:02:41.070Z,7.28
2023-03-03T01:07:45.813Z,6.70
2023-03-03T01:12:50.726Z,6.95
2023-03-03T01:17:57.456Z,6.38
2023-03-03T01:23:02.881Z,6.05
2023-03-03T01:28:07.365Z,6.07
2023-03-03T01:33:12.970Z,6.25
2023-03-03T01:38:17.668Z,6.70
2023-03-03T01:43:22.097Z,6.95
2023-03-03T01:48:31.621Z,7.10
2023-03-03T01:53:40.102Z,5.63
2023-03-03T01:58:46.830Z,5.93
2023-03-03T02:03:54.014Z,6.78
2023-03-03T02:09:01.668Z,6.88
2023-03-03T02:14:05.992Z,6.30
2023-03-03T02:19:20.179Z,7.55
2023-03-03T02:24:28.870Z,7.68
2023-03-03T02:29:34.598Z,8.93
2023-03-03T02:34:49.423Z,10.38
2023-03-03T02:39:53.570Z,8.75
2023-03-03T02:44:59.332Z,9.50
2023-03-03T02:50:03.870Z,9.73
2023-03-03T02:55:09.911Z,9.73
2023-03-03T03:00:16.290Z,11.30
2023-03-03T03:05:20.312Z,10.88
2023-03-03T03:10:24.554Z,9.40
2023-03-03T03:15:33.215Z,12.70
2023-03-03T03:20:40.244Z,10.87
2023-03-03T03:25:46.907Z,8.40
2023-03-03T03:30:59.208Z,10.20
2023-03-03T03:36:06.483Z,9.90
2023-03-03T03:41:13.390Z,9.85
2023-03-03T03:46:19.582Z,10.35
2023-03-03T03:51:23.975Z,10.23
2023-03-03T03:56:28.858Z,10.95
2023-03-03T04:01:37.391Z,10.30
2023-03-03T04:06:42.061Z,10.48
2023-03-03T04:11:46.366Z,10.02
2023-03-03T04:16:53.070Z,9.38
2023-03-03T04:21:58.656Z,9.98
2023-03-03T04:27:03.461Z,9.48
2023-03-03T04:32:10.125Z,9.57
2023-03-03T04:37:14.848Z,9.57
2023-03-03T04:42:19.518Z,10.10
2023-03-03T04:47:26.567Z,10.85
2023-03-03T04:52:30.986Z,9.48
2023-03-03T04:57:35.821Z,10.52
2023-03-03T05:02:42.788Z,11.25
2023-03-03T05:07:47.483Z,11.35
2023-03-03T05:12:52.470Z,10.55
2023-03-03T05:17:58.584Z,9.88
2023-03-03T05:23:03.326Z,10.38
2023-03-03T05:28:07.544Z,9.73
2023-03-03T05:33:15.710Z,10.43
2023-03-03T05:38:19.758Z,11.43
2023-03-03T05:43:24.182Z,10.20
2023-03-03T05:48:30.048Z,11.07
2023-03-03T05:53:34.709Z,10.10
2023-03-03T05:58:40.215Z,10.23
2023-03-03T06:03:46.237Z,9.43
2023-03-03T06:08:56.830Z,21.27
2023-03-03T06:14:02.888Z,21.05
2023-03-03T06:19:09.763Z,15.90
2023-03-03T06:24:14.405Z,16.63
2023-03-03T06:29:19.366Z,11.70
2023-03-03T06:34:26.607Z,11.48
2023-03-03T06:39:30.993Z,11.52
2023-03-03T06:44:35.830Z,16.70
2023-03-03T06:49:41.663Z,13.43
2023-03-03T06:54:45.898Z,32.67
2023-03-03T06:59:54.602Z,19.13
2023-03-03T07:05:00.756Z,13.93
2023-03-03T07:10:14.965Z,21.38
2023-03-03T07:15:23.685Z,24.10
2023-03-03T07:20:35.359Z,23.57
2023-03-03T07:25:39.486Z,20.02
2023-03-03T07:30:44.125Z,20.50
2023-03-03T07:35:50.700Z,24.33
2023-03-03T07:40:57.261Z,21.52
2023-03-03T07:46:16.651Z,16.40
2023-03-03T07:51:25.430Z,13.13
2023-03-03T07:56:36.163Z,12.88
2023-03-03T08:01:42.958Z,16.92
2023-03-03T08:06:51.719Z,16.27
2023-03-03T08:11:59.502Z,16.17
2023-03-03T08:17:08.802Z,18.65
2023-03-03T08:22:18.930Z,13.93
2023-03-03T08:27:23.642Z,12.43
2023-03-03T08:32:27.702Z,11.13
2023-03-03T08:37:36.065Z,11.10
2023-03-03T08:42:41.126Z,11.05
2023-03-03T08:47:45.201Z,14.77
2023-03-03T08:52:51.899Z,16.65
2023-03-03T08:57:55.920Z,12.00
2023-03-03T09:03:01.605Z,11.85
2023-03-03T09:08:09.059Z,12.20
2023-03-03T09:13:16.813Z,13.25
2023-03-03T09:18:23.131Z,21.77
2023-03-03T09:23:34.906Z,23.27
2023-03-03T09:28:39.505Z,14.02
2023-03-03T09:33:46.636Z,16.00
2023-03-03T09:38:52.963Z,12.55
2023-03-03T09:44:23.298Z,11.68
2023-03-03T09:49:34.264Z,14.35
2023-03-03T09:54:54.347Z,12.25
2023-03-03T10:00:16.669Z,11.55
2023-03-03T10:05:27.999Z,12.05
2023-03-03T10:10:54.843Z,11.45
2023-03-03T10:16:16.901Z,8.55
2023-03-03T10:21:26.675Z,8.63
2023-03-03T10:27:09.912Z,10.75
2023-03-03T10:32:58.808Z,9.45
2023-03-03T10:38:27.184Z,10.68
2023-03-03T10:44:09.641Z,9.73
2023-03-03T10:49:30.264Z,10.00
2023-03-03T10:54:51.100Z,11.13
2023-03-03T11:00:09.243Z,10.65
2023-03-03T11:05:27.732Z,9.75
2023-03-03T11:10:52.709Z,11.82
2023-03-03T11:16:10.885Z,11.52
2023-03-03T11:21:26.026Z,10.60
2023-03-03T11:26:50.347Z,12.73
2023-03-03T11:32:03.362Z,11.20
2023-03-03T11:37:12.273Z,11.23
2023-03-03T11:42:26.379Z,10.02
2023-03-03T11:47:40.695Z,10.10
2023-03-03T11:52:53.470Z,11.23
2023-03-03T11:58:05.750Z,10.00
2023-03-03T12:03:35.892Z,16.10
2023-03-03T12:09:18.854Z,13.20
2023-03-03T12:14:37.465Z,18.73
2023-03-03T12:19:56.098Z,11.32
2023-03-03T12:25:26.584Z,11.93
2023-03-03T12:31:00.879Z,9.13
2023-03-03T12:36:18.792Z,10.27
2023-03-03T12:41:28.717Z,9.52
2023-03-03T12:46:45.245Z,8.80
2023-03-03T12:52:04.461Z,9.82
2023-03-03T12:57:20.836Z,9.43
2023-03-03T13:02:43.864Z,8.88
2023-03-03T13:07:57.362Z,10.70
2023-03-03T13:13:12.370Z,9.00
2023-03-03T13:18:33.592Z,7.95
2023-03-03T13:23:48.226Z,7.25
2023-03-03T13:29:03.839Z,6.78
2023-03-03T13:34:14.622Z,8.25
2023-03-03T13:39:27.142Z,5.50
2023-03-03T13:44:35.924Z,6.22
2023-03-03T13:49:57.761Z,7.97
2023-03-03T13:55:28.748Z,6.45
2023-03-03T14:00:54.847Z,5.47
2023-03-03T14:06:04.401Z,5.78
2023-03-03T14:11:16.493Z,7.60
2023-03-03T14:16:30.073Z,9.23
2023-03-03T14:21:40.379Z,9.40
2023-03-03T14:26:52.586Z,7.35
2023-03-03T14:31:58.327Z,6.45
2023-03-03T14:37:23.559Z,6.13
2023-03-03T14:42:37.031Z,7.30
2023-03-03T14:47:47.326Z,11.25
2023-03-03T14:53:09.261Z,16.98
2023-03-03T14:58:30.231Z,8.50
2023-03-03T15:03:38.315Z,8.00
2023-03-03T15:08:46.547Z,7.15
2023-03-03T15:13:52.626Z,10.23
2023-03-03T15:19:19.727Z,8.95
2023-03-03T15:24:34.355Z,10.00
2023-03-03T15:29:59.641Z,7.85
2023-03-03T15:35:15.966Z,15.27
2023-03-03T15:40:27.084Z,17.60
2023-03-03T15:45:37.937Z,19.98
2023-03-03T15:51:03.250Z,11.93
2023-03-03T15:56:23.134Z,12.55
2023-03-03T16:01:34.189Z,13.75
2023-03-03T16:06:51.289Z,8.65
2023-03-03T16:12:03.054Z,7.75
2023-03-03T16:17:20.037Z,11.15
2023-03-03T16:22:51.307Z,17.38
2023-03-03T16:28:04.152Z,18.77
2023-03-03T16:33:20.832Z,29.13
2023-03-03T16:38:33.056Z,31.20
2023-03-03T16:43:47.518Z,14.98
2023-03-03T16:49:02.178Z,9.52
2023-03-03T16:54:15.474Z,10.85
2023-03-03T16:59:39.425Z,11.40
2023-03-03T17:04:48.686Z,14.15
2023-03-03T17:10:07.168Z,16.65
2023-03-03T17:15:35.316Z,12.13
2023-03-03T17:20:48.978Z,10.98
2023-03-03T17:26:04.723Z,10.10
2023-03-03T17:31:16.389Z,13.73
2023-03-03T17:36:34.238Z,11.82
2023-03-03T17:41:46.888Z,15.63
2023-03-03T17:46:56.317Z,13.20
2023-03-03T17:57:36.674Z,10.40
2023-03-03T18:03:07.709Z,12.20
2023-03-03T18:08:31.760Z,13.38
2023-03-03T18:13:52.720Z,14.60
2023-03-03T18:19:12.825Z,24.13
2023-03-03T18:24:38.311Z,17.27
2023-03-03T18:30:35.737Z,41.10
2023-03-03T18:35:41.997Z,20.00
2023-03-03T18:40:53.704Z,11.77
2023-03-03T18:45:58.425Z,15.02
2023-03-03T18:51:03.469Z,12.30
2023-03-03T18:56:13.145Z,14.60
2023-03-03T19:01:43.516Z,14.90
2023-03-03T19:07:27.077Z,11.85
2023-03-03T19:12:55.499Z,11.32
2023-03-03T19:18:01.568Z,12.98
2023-03-03T19:23:13.256Z,12.68
2023-03-03T19:28:40.246Z,13.10
2023-03-03T19:33:57.027Z,13.85
2023-03-03T19:39:15.471Z,13.73
2023-03-03T19:44:40.819Z,14.35
2023-03-03T19:50:00.089Z,15.80
2023-03-03T19:55:19.888Z,14.10
2023-03-03T20:00:39.362Z,14.65
2023-03-03T20:05:50.011Z,16.70
2023-03-03T20:11:01.301Z,15.38
2023-03-03T20:21:30.077Z,17.13
2023-03-03T20:26:44.246Z,16.83
2023-03-03T20:31:58.377Z,16.15
2023-03-03T20:37:10.397Z,18.45
2023-03-03T20:42:27.099Z,19.25
2023-03-03T20:47:44.541Z,18.05
2023-03-03T20:53:03.608Z,26.55
2023-03-03T20:58:15.142Z,20.23
2023-03-03T21:03:30.061Z,22.92
2023-03-03T21:08:46.605Z,17.42
2023-03-03T21:13:54.407Z,20.67
2023-03-03T21:19:01.405Z,18.08
2023-03-03T21:24:06.433Z,20.77
2023-03-03T21:29:16.979Z,21.15
2023-03-03T21:34:26.051Z,20.88
2023-03-03T21:39:32.180Z,14.35
2023-03-03T21:44:39.785Z,16.35
2023-03-03T21:49:47.314Z,13.95
2023-03-03T21:54:53.049Z,18.98
2023-03-03T21:59:57.696Z,21.73
2023-03-03T22:05:04.629Z,27.17
2023-03-03T22:10:10.156Z,14.57
2023-03-03T22:15:14.279Z,15.75
2023-03-03T22:20:20.612Z,15.45
2023-03-03T22:25:24.758Z,18.15
2023-03-03T22:30:29.370Z,19.92
2023-03-03T22:35:36.529Z,23.15
2023-03-03T22:40:40.659Z,27.33
2023-03-03T22:45:45.585Z,26.13
2023-03-03T22:50:51.272Z,27.08
2023-03-03T22:55:55.666Z,27.65
2023-03-03T23:00:59.945Z,20.88
2023-03-03T23:06:06.208Z,21.80
2023-03-03T23:11:10.352Z,22.00
2023-03-03T23:16:14.493Z,15.43
2023-03-03T23:21:20.236Z,19.05
2023-03-03T23:26:27.032Z,16.70
2023-03-03T23:31:31.544Z,15.07
2023-03-03T23:36:38.006Z,14.75
2023-03-03T23:41:43.201Z,13.23
2023-03-03T23:46:47.509Z,13.35
2023-03-03T23:51:52.891Z,13.13
2023-03-03T23:56:57.104Z,12.40
